Montier, Missouri
Current Conditions -  °F | °C
As of 6:53 AM on Thursday 27 Nov 2014 (Local Time) from KUNO Reporting Station
Overcast Overcast  
Wind Chill: 24°   Ceiling: 1400
Heat Index: 32°   Visibility: 8mi
Dew Point: 25°   Wind: 10mph
Humidity: 75%   Direction: 330°NNW
Pressure: 30.44"   Gusts: NA
Location:  36.99°N, 91.58°W
Report Text: KUNO 271253Z AUTO 33009KT 8SM OVC014 00/M04 A3044 RMK AO2 SLP316 T00001039
Loading
Personal Weather Stations






























Interactive Weather Map New forecast layout! Learn more

10-Day Weather Forecast

Advertisements
Track Severe Weather on mobile